createdAt,value
2022-08-16T00:00:57.105Z,3.4
2022-08-16T00:02:11.994Z,3.4
2022-08-16T00:03:14.874Z,3.4
2022-08-16T00:04:22.383Z,3.3
2022-08-16T00:05:34.959Z,3.3
2022-08-16T00:06:39.251Z,3.3
2022-08-16T00:07:47.686Z,3.4
2022-08-16T00:08:56.055Z,3.4
2022-08-16T00:10:04.388Z,3.4
2022-08-16T00:11:15.112Z,3.6
2022-08-16T00:12:21.303Z,3.6
2022-08-16T00:13:29.663Z,3.6
2022-08-16T00:14:38.223Z,3.6
2022-08-16T00:15:51.290Z,3.6
2022-08-16T00:16:58.427Z,3.6
2022-08-16T00:18:03.524Z,3.7
2022-08-16T00:19:13.502Z,3.7
2022-08-16T00:20:20.893Z,3.7
2022-08-16T00:21:29.028Z,3.5
2022-08-16T00:22:37.174Z,3.5
2022-08-16T00:23:46.072Z,3.5
2022-08-16T00:24:54.394Z,3.6
2022-08-16T00:26:34.028Z,3.6
2022-08-16T00:27:10.859Z,3.6
2022-08-16T00:28:19.432Z,3.4
2022-08-16T00:29:29.579Z,3.4
2022-08-16T00:30:36.135Z,3.4
2022-08-16T00:31:47.312Z,3.4
2022-08-16T00:32:53.063Z,3.4
2022-08-16T00:34:01.410Z,3.4
2022-08-16T00:35:11.049Z,3.6
2022-08-16T00:36:18.309Z,3.6
2022-08-16T00:37:41.192Z,3.6
2022-08-16T00:38:38.428Z,3.6
2022-08-16T00:39:43.650Z,3.6
2022-08-16T00:40:53.596Z,3.6
2022-08-16T00:42:00.511Z,3.8
2022-08-16T00:43:11.888Z,3.8
2022-08-16T00:44:17.265Z,3.8
2022-08-16T00:45:25.777Z,3.4
2022-08-16T00:46:35.452Z,3.4
2022-08-16T00:47:48.876Z,3.4
2022-08-16T00:48:51.049Z,3.7
2022-08-16T00:49:59.416Z,3.7
2022-08-16T00:51:07.746Z,3.7
2022-08-16T00:52:23.740Z,4
2022-08-16T00:53:24.669Z,4
2022-08-16T00:54:33.066Z,4
2022-08-16T00:55:41.590Z,3.6
2022-08-16T00:56:57.453Z,3.6
2022-08-16T00:58:00.693Z,3.6
2022-08-16T00:59:06.896Z,3.9
2022-08-16T01:00:20.086Z,3.9
2022-08-16T01:01:23.613Z,3.9
2022-08-16T01:02:32.686Z,4.1
2022-08-16T01:03:41.467Z,4.1
2022-08-16T01:05:04.709Z,4.1
2022-08-16T01:05:57.392Z,3.7
2022-08-16T01:07:06.618Z,3.7
2022-08-16T01:08:35.525Z,3.7
2022-08-16T01:09:22.834Z,3.7
2022-08-16T01:10:31.792Z,3.7
2022-08-16T01:11:51.684Z,3.7
2022-08-16T01:12:48.055Z,3.5
2022-08-16T01:13:56.335Z,3.5
2022-08-16T01:15:04.705Z,3.5
2022-08-16T01:16:13.235Z,3.5
2022-08-16T01:17:24.097Z,3.5
2022-08-16T01:18:38.914Z,3.5
2022-08-16T01:19:38.526Z,3.5
2022-08-16T01:20:46.874Z,3.5
2022-08-16T01:21:55.244Z,3.5
2022-08-16T01:23:03.827Z,3.8
2022-08-16T01:24:44.930Z,3.8
2022-08-16T01:25:21.598Z,3.8
2022-08-16T01:26:33.889Z,3.5
2022-08-16T01:27:38.595Z,3.5
2022-08-16T01:28:45.795Z,3.5
2022-08-16T01:29:57.371Z,4.1
2022-08-16T01:31:02.704Z,4.1
2022-08-16T01:32:11.046Z,4.1
2022-08-16T01:33:19.669Z,4
2022-08-16T01:34:27.957Z,4
2022-08-16T01:35:36.381Z,4
2022-08-16T01:36:44.866Z,3.6
2022-08-16T01:37:54.182Z,3.6
2022-08-16T01:39:01.610Z,3.6
2022-08-16T01:40:10.170Z,3.9
2022-08-16T01:41:19.385Z,3.9
2022-08-16T01:42:26.872Z,3.9
2022-08-16T01:43:35.434Z,3.8
2022-08-16T01:44:43.793Z,3.8
2022-08-16T01:45:54.115Z,3.8
2022-08-16T01:47:00.716Z,3.7
2022-08-16T01:48:19.360Z,3.7
2022-08-16T01:49:18.318Z,3.7
2022-08-16T01:50:41.322Z,3.6
2022-08-16T01:51:34.311Z,3.6
2022-08-16T01:52:46.411Z,3.6
2022-08-16T01:53:53.620Z,3.6
2022-08-16T01:54:59.597Z,3.6
2022-08-16T01:56:07.927Z,3.6
2022-08-16T01:57:16.504Z,4.2
2022-08-16T01:58:24.853Z,4.2
2022-08-16T01:59:33.202Z,4.2
2022-08-16T02:00:41.755Z,4
2022-08-16T02:01:52.931Z,4
2022-08-16T02:02:58.456Z,4
2022-08-16T02:04:10.513Z,4.2
2022-08-16T02:05:15.370Z,4.2
2022-08-16T02:06:34.013Z,4.2
2022-08-16T02:07:32.293Z,4.2
2022-08-16T02:08:40.644Z,4.2
2022-08-16T02:09:57.623Z,4.2
2022-08-16T02:10:57.577Z,3.9
2022-08-16T02:12:39.601Z,3.9
2022-08-16T02:13:14.292Z,3.9
2022-08-16T02:14:26.445Z,3.7
2022-08-16T02:15:31.202Z,3.7
2022-08-16T02:16:39.533Z,3.7
2022-08-16T02:17:48.115Z,3.7
2022-08-16T02:18:56.474Z,3.7
2022-08-16T02:20:08.806Z,3.7
2022-08-16T02:21:13.373Z,3.9
2022-08-16T02:22:33.397Z,3.9
2022-08-16T02:23:30.093Z,3.9
2022-08-16T02:24:41.362Z,3.7
2022-08-16T02:25:51.383Z,3.7
2022-08-16T02:26:55.335Z,3.7
2022-08-16T02:28:03.916Z,3.6
2022-08-16T02:29:12.971Z,3.6
2022-08-16T02:30:36.220Z,3.6
2022-08-16T02:32:04.252Z,3.7
2022-08-16T02:32:49.659Z,3.7
2022-08-16T02:33:50.279Z,3.7
2022-08-16T02:34:56.393Z,3.7
2022-08-16T02:36:02.819Z,3.7
2022-08-16T02:37:11.178Z,3.7
2022-08-16T02:38:19.743Z,3.5
2022-08-16T02:39:30.180Z,3.5
2022-08-16T02:40:36.435Z,3.5
2022-08-16T02:41:45.022Z,3.8
2022-08-16T02:42:53.659Z,3.8
2022-08-16T02:44:01.709Z,3.8
2022-08-16T02:45:10.277Z,3.8
2022-08-16T02:46:18.625Z,3.8
2022-08-16T02:47:26.973Z,3.8
2022-08-16T02:48:35.546Z,3.5
2022-08-16T02:49:58.819Z,3.5
2022-08-16T02:50:55.695Z,3.5
2022-08-16T02:52:00.812Z,3.8
2022-08-16T02:53:09.161Z,3.8
2022-08-16T02:54:17.520Z,3.8
2022-08-16T02:55:40.570Z,3.8
2022-08-16T02:56:34.434Z,3.8
2022-08-16T02:57:53.788Z,3.8
2022-08-16T02:58:51.373Z,4.2
2022-08-16T02:59:59.723Z,4.2
2022-08-16T03:01:08.095Z,4.2
2022-08-16T03:02:16.661Z,3.7
2022-08-16T03:03:25.044Z,3.7
2022-08-16T03:04:41.618Z,3.7
2022-08-16T03:05:41.904Z,3.5
2022-08-16T03:06:50.441Z,3.5
2022-08-16T03:07:58.606Z,3.5
2022-08-16T03:09:09.735Z,3.9
2022-08-16T03:10:15.506Z,3.9
2022-08-16T03:11:23.877Z,3.9
2022-08-16T03:12:36.612Z,3.8
2022-08-16T03:13:40.775Z,3.8
2022-08-16T03:14:49.129Z,3.8
2022-08-16T03:15:57.686Z,3.6
2022-08-16T03:17:06.040Z,3.6
2022-08-16T03:18:18.796Z,3.6
2022-08-16T03:19:22.939Z,3.4
2022-08-16T03:20:32.016Z,3.4
2022-08-16T03:21:39.659Z,3.4
2022-08-16T03:22:48.443Z,3.7
2022-08-16T03:23:56.552Z,3.7
2022-08-16T03:25:04.904Z,3.7
2022-08-16T03:26:13.480Z,3.5
2022-08-16T03:27:21.821Z,3.5
2022-08-16T03:28:30.172Z,3.5
2022-08-16T03:29:38.726Z,3.6
2022-08-16T03:30:47.526Z,3.6
2022-08-16T03:31:55.435Z,3.6
2022-08-16T03:33:03.985Z,3.9
2022-08-16T03:34:12.310Z,3.9
2022-08-16T03:35:20.673Z,3.9
2022-08-16T03:36:30.524Z,3.5
2022-08-16T03:38:01.440Z,3.5
2022-08-16T03:38:45.930Z,3.5
2022-08-16T03:39:56.629Z,3.3
2022-08-16T03:41:03.014Z,3.3
2022-08-16T03:42:11.193Z,3.3
2022-08-16T03:43:21.561Z,3.4
2022-08-16T03:44:40.895Z,3.4
2022-08-16T03:45:36.444Z,3.4
2022-08-16T03:46:48.518Z,3.5
2022-08-16T03:47:58.217Z,3.5
2022-08-16T03:49:01.724Z,3.5
2022-08-16T03:50:25.485Z,3.5
2022-08-16T03:51:18.619Z,3.5
2022-08-16T03:52:29.934Z,3.5
2022-08-16T03:53:37.516Z,3.6
2022-08-16T03:54:45.433Z,3.6
2022-08-16T03:55:52.751Z,3.6
2022-08-16T03:57:00.798Z,3.4
2022-08-16T03:58:09.149Z,3.4
2022-08-16T03:59:17.502Z,3.4
2022-08-16T04:00:35.654Z,3.2
2022-08-16T04:01:34.445Z,3.2
2022-08-16T04:02:42.773Z,3.2
2022-08-16T04:03:51.330Z,3.1
2022-08-16T04:04:59.686Z,3.1
2022-08-16T04:06:08.039Z,3.1
2022-08-16T04:07:16.602Z,3
2022-08-16T04:08:24.955Z,3
2022-08-16T04:09:35.286Z,3
2022-08-16T04:10:41.856Z,3.4
2022-08-16T04:11:50.191Z,3.4
2022-08-16T04:13:04.064Z,3.4
2022-08-16T04:14:08.900Z,3
2022-08-16T04:15:16.929Z,3
2022-08-16T04:16:26.922Z,3
2022-08-16T04:17:32.389Z,3.3
2022-08-16T04:18:40.720Z,3.3
2022-08-16T04:19:49.375Z,3.3
2022-08-16T04:20:57.640Z,2.9
2022-08-16T04:22:08.635Z,2.9
2022-08-16T04:23:14.344Z,2.9
2022-08-16T04:24:22.914Z,3.4
2022-08-16T04:25:31.261Z,3.4
2022-08-16T04:26:45.955Z,3.4
2022-08-16T04:27:54.438Z,3.3
2022-08-16T04:29:14.892Z,3.3
2022-08-16T04:30:04.860Z,3.3
2022-08-16T04:31:13.438Z,3.2
2022-08-16T04:32:21.776Z,3.2
2022-08-16T04:33:30.118Z,3.2
2022-08-16T04:34:38.678Z,3
2022-08-16T04:35:49.463Z,3
2022-08-16T04:36:56.591Z,3
2022-08-16T04:38:10.828Z,3.2
2022-08-16T04:39:12.286Z,3.2
2022-08-16T04:40:21.727Z,3.2
2022-08-16T04:41:32.226Z,3.2
2022-08-16T04:42:38.236Z,3.2
2022-08-16T04:43:45.916Z,3.2
2022-08-16T04:44:55.686Z,3.2
2022-08-16T04:46:03.014Z,3.2
2022-08-16T04:47:21.066Z,3.2
2022-08-16T04:48:21.913Z,2.8
2022-08-16T04:49:28.115Z,2.8
2022-08-16T04:50:37.871Z,2.8
2022-08-16T04:51:45.025Z,3.2
2022-08-16T04:52:53.351Z,3.2
2022-08-16T04:54:01.702Z,3.2
2022-08-16T04:55:11.871Z,3
2022-08-16T04:56:18.611Z,3
2022-08-16T04:57:30.058Z,3
2022-08-16T04:58:38.548Z,3.4
2022-08-16T04:59:43.889Z,3.4
2022-08-16T05:00:52.243Z,3.4
2022-08-16T05:02:00.813Z,3.3
2022-08-16T05:03:09.207Z,3.3
2022-08-16T05:04:19.451Z,3.3
2022-08-16T05:05:26.053Z,3.2
2022-08-16T05:06:42.591Z,3.2
2022-08-16T05:07:57.691Z,3.2
2022-08-16T05:08:51.286Z,3.2
2022-08-16T05:09:59.647Z,3.2
2022-08-16T05:11:08.414Z,3.2
2022-08-16T05:12:18.173Z,3.1
2022-08-16T05:13:24.906Z,3.1
2022-08-16T05:14:42.238Z,3.1
2022-08-16T05:15:41.814Z,3.2
2022-08-16T05:16:52.095Z,3.2
2022-08-16T05:17:59.691Z,3.2
2022-08-16T05:19:11.457Z,2.8
2022-08-16T05:20:35.757Z,2.8
2022-08-16T05:21:23.841Z,2.8
2022-08-16T05:22:32.395Z,2.7
2022-08-16T05:23:40.746Z,2.7
2022-08-16T05:24:49.097Z,2.7
2022-08-16T05:25:57.757Z,2.8
2022-08-16T05:27:11.051Z,2.8
2022-08-16T05:28:14.486Z,2.8
2022-08-16T05:29:23.046Z,3.1
2022-08-16T05:30:34.194Z,3.1
2022-08-16T05:31:44.161Z,3.1
2022-08-16T05:32:48.698Z,2.7
2022-08-16T05:33:56.657Z,2.7
2022-08-16T05:35:05.024Z,2.7
2022-08-16T05:36:14.343Z,2.9
2022-08-16T05:37:21.919Z,2.9
2022-08-16T05:38:31.193Z,2.9
2022-08-16T05:39:40.637Z,2.9
2022-08-16T05:40:57.135Z,2.9
2022-08-16T05:41:55.520Z,2.9
2022-08-16T05:43:04.067Z,3
2022-08-16T05:44:22.637Z,3
2022-08-16T05:45:21.558Z,3
2022-08-16T05:46:31.128Z,2.9
2022-08-16T05:47:43.116Z,2.9
2022-08-16T05:48:46.014Z,2.9
2022-08-16T05:49:54.575Z,3
2022-08-16T05:51:02.929Z,3
2022-08-16T05:52:13.569Z,3
2022-08-16T05:53:19.853Z,2.7
2022-08-16T05:54:28.219Z,2.7
2022-08-16T05:55:40.717Z,2.7
2022-08-16T05:56:45.081Z,3
2022-08-16T05:57:53.404Z,3
2022-08-16T05:59:01.747Z,3
2022-08-16T06:00:10.332Z,2.6
2022-08-16T06:01:18.738Z,2.6
2022-08-16T06:02:28.880Z,2.6
2022-08-16T06:03:35.547Z,2.8
2022-08-16T06:04:45.068Z,2.8
2022-08-16T06:05:52.283Z,2.8
2022-08-16T06:07:02.538Z,2.8
2022-08-16T06:08:09.193Z,2.8
2022-08-16T06:09:17.557Z,2.8
2022-08-16T06:10:32.192Z,3.2
2022-08-16T06:11:34.461Z,3.2
2022-08-16T06:12:42.807Z,3.2
2022-08-16T06:13:51.367Z,2.8
2022-08-16T06:15:00.062Z,2.8
2022-08-16T06:16:08.109Z,2.8
2022-08-16T06:17:16.689Z,2.8
2022-08-16T06:18:27.162Z,2.8
2022-08-16T06:19:33.715Z,2.8
2022-08-16T06:20:51.731Z,3
2022-08-16T06:21:55.007Z,3
2022-08-16T06:23:03.142Z,3
2022-08-16T06:24:53.190Z,3
2022-08-16T06:25:15.609Z,3
2022-08-16T06:26:23.964Z,3
2022-08-16T06:27:39.694Z,3.2
2022-08-16T06:28:40.886Z,3.2
2022-08-16T06:29:49.895Z,3.2
2022-08-16T06:30:57.786Z,3.3
2022-08-16T06:32:06.143Z,3.3
2022-08-16T06:33:19.973Z,3.3
2022-08-16T06:34:31.777Z,3.1
2022-08-16T06:35:35.455Z,3.1
2022-08-16T06:36:39.789Z,3.1
2022-08-16T06:37:51.192Z,3.2
2022-08-16T06:38:56.979Z,3.2
2022-08-16T06:40:05.216Z,3.2
2022-08-16T06:41:14.189Z,3.2
2022-08-16T06:42:22.055Z,3.2
2022-08-16T06:43:30.406Z,3.2
2022-08-16T06:44:38.984Z,3.3
2022-08-16T06:45:47.314Z,3.3
2022-08-16T06:46:55.693Z,3.3
2022-08-16T06:48:04.262Z,3.2
2022-08-16T06:49:12.623Z,3.2
2022-08-16T06:50:21.896Z,3.2
2022-08-16T06:51:45.141Z,3.1
2022-08-16T06:52:58.659Z,3.1
2022-08-16T06:53:46.209Z,3.1
2022-08-16T06:54:54.805Z,3.6
2022-08-16T06:56:03.149Z,3.6
2022-08-16T06:57:11.747Z,3.6
2022-08-16T06:58:22.543Z,3.4
2022-08-16T06:59:28.463Z,3.4
2022-08-16T07:00:37.454Z,3.4
2022-08-16T07:01:53.505Z,3.3
2022-08-16T07:02:54.102Z,3.3
2022-08-16T07:04:02.179Z,3.3
2022-08-16T07:05:15.178Z,3.1
2022-08-16T07:06:19.080Z,3.1
2022-08-16T07:07:30.065Z,3.1
2022-08-16T07:08:36.019Z,3.4
2022-08-16T07:09:44.366Z,3.4
2022-08-16T07:10:52.733Z,3.4
2022-08-16T07:12:03.308Z,3.4
2022-08-16T07:13:11.555Z,3.4
2022-08-16T07:14:25.399Z,3.4
2022-08-16T07:15:26.573Z,3.2
2022-08-16T07:16:34.939Z,3.2
2022-08-16T07:17:43.286Z,3.2
2022-08-16T07:18:59.487Z,3.6
2022-08-16T07:20:02.290Z,3.6
2022-08-16T07:21:08.553Z,3.6
2022-08-16T07:22:36.886Z,3.6
2022-08-16T07:23:36.899Z,3.6
2022-08-16T07:24:33.828Z,3.6
2022-08-16T07:25:42.397Z,3.5
2022-08-16T07:26:50.755Z,3.5
2022-08-16T07:27:59.247Z,3.5
2022-08-16T07:29:07.708Z,3.6
2022-08-16T07:30:38.131Z,3.6
2022-08-16T07:31:24.403Z,3.6
2022-08-16T07:32:32.966Z,3.1
2022-08-16T07:33:51.551Z,3.1
2022-08-16T07:34:49.681Z,3.1
2022-08-16T07:35:58.247Z,3.2
2022-08-16T07:37:06.629Z,3.2
2022-08-16T07:38:19.653Z,3.2
2022-08-16T07:39:23.622Z,3.2
2022-08-16T07:40:58.346Z,3.2
2022-08-16T07:41:40.257Z,3.2
2022-08-16T07:42:49.060Z,3.1
2022-08-16T07:43:57.229Z,3.1
2022-08-16T07:45:07.637Z,3.1
2022-08-16T07:46:38.151Z,3.3
2022-08-16T07:47:24.509Z,3.3
2022-08-16T07:48:30.880Z,3.3
2022-08-16T07:49:52.746Z,3.8
2022-08-16T07:50:55.272Z,3.8
2022-08-16T07:51:56.286Z,3.8
2022-08-16T07:53:04.744Z,3.5
2022-08-16T07:54:20.537Z,3.5
2022-08-16T07:55:21.438Z,3.5
2022-08-16T07:56:33.948Z,3.3
2022-08-16T07:57:38.367Z,3.3
2022-08-16T07:58:46.724Z,3.3
2022-08-16T07:59:57.042Z,3.6
2022-08-16T08:01:03.705Z,3.6
2022-08-16T08:02:12.198Z,3.6
2022-08-16T08:03:20.599Z,3.4
2022-08-16T08:04:32.403Z,3.4
2022-08-16T08:05:37.358Z,3.4
2022-08-16T08:06:45.938Z,3.6
2022-08-16T08:07:54.303Z,3.6
2022-08-16T08:09:02.659Z,3.6
2022-08-16T08:10:12.088Z,2.9
2022-08-16T08:11:19.588Z,2.9
2022-08-16T08:12:31.697Z,2.9
2022-08-16T08:13:41.684Z,3.1
2022-08-16T08:14:44.866Z,3.1
2022-08-16T08:15:53.472Z,3.1
2022-08-16T08:17:01.958Z,3.3
2022-08-16T08:18:29.602Z,3.3
2022-08-16T08:19:18.482Z,3.3
2022-08-16T08:20:28.274Z,3
2022-08-16T08:21:58.204Z,3
2022-08-16T08:22:43.775Z,3
2022-08-16T08:23:52.314Z,3.2
2022-08-16T08:25:03.503Z,3.2
2022-08-16T08:26:16.975Z,3.2
2022-08-16T08:27:22.391Z,3.1
2022-08-16T08:28:26.291Z,3.1
2022-08-16T08:29:37.021Z,3.1
2022-08-16T08:30:50.803Z,3.1
2022-08-16T08:31:51.330Z,3.1
2022-08-16T08:33:00.890Z,3.1
2022-08-16T08:34:08.157Z,3.2
2022-08-16T08:35:16.507Z,3.2
2022-08-16T08:36:24.861Z,3.2
2022-08-16T08:37:41.766Z,2.9
2022-08-16T08:38:44.319Z,2.9
2022-08-16T08:39:53.483Z,2.9
2022-08-16T08:40:58.724Z,2.9
2022-08-16T08:42:07.061Z,2.9
2022-08-16T08:43:18.172Z,2.9
2022-08-16T08:44:28.111Z,3
2022-08-16T08:45:52.645Z,3
2022-08-16T08:46:40.745Z,3
2022-08-16T08:47:54.076Z,3.1
2022-08-16T08:49:00.264Z,3.1
2022-08-16T08:50:06.006Z,3.1
2022-08-16T08:51:14.563Z,3
2022-08-16T08:52:33.845Z,3
2022-08-16T08:53:31.297Z,3
2022-08-16T08:54:39.847Z,3.2
2022-08-16T08:55:48.201Z,3.2
2022-08-16T08:56:56.584Z,3.2
2022-08-16T08:58:05.132Z,2.9
2022-08-16T08:59:19.944Z,2.9
2022-08-16T09:00:21.844Z,2.9
2022-08-16T09:01:31.571Z,2.7
2022-08-16T09:02:38.785Z,2.7
2022-08-16T09:03:47.206Z,2.7
2022-08-16T09:04:55.710Z,2.8
2022-08-16T09:06:04.050Z,2.8
2022-08-16T09:07:12.391Z,2.8
2022-08-16T09:08:22.097Z,2.6
2022-08-16T09:09:33.108Z,2.6
2022-08-16T09:10:39.459Z,2.6
2022-08-16T09:11:49.750Z,2.6
2022-08-16T09:12:54.616Z,2.6
2022-08-16T09:14:03.011Z,2.6
2022-08-16T09:15:11.629Z,2.6
2022-08-16T09:16:57.541Z,2.6
2022-08-16T09:17:49.457Z,2.6
2022-08-16T09:18:36.891Z,2.5
2022-08-16T09:19:45.203Z,2.5
2022-08-16T09:20:55.183Z,2.5
2022-08-16T09:22:02.140Z,2.2
2022-08-16T09:23:10.513Z,2.2
2022-08-16T09:24:19.931Z,2.2
2022-08-16T09:25:34.053Z,2.1
2022-08-16T09:26:45.184Z,2.1
2022-08-16T09:27:46.913Z,2.1
2022-08-16T09:29:14.283Z,1.9
2022-08-16T09:30:02.555Z,1.9
2022-08-16T09:31:10.902Z,1.9
2022-08-16T09:32:25.500Z,2.1
2022-08-16T09:33:26.286Z,2.1
2022-08-16T09:34:34.635Z,2.1
2022-08-16T09:35:43.260Z,1.9
2022-08-16T09:36:53.902Z,1.9
2022-08-16T09:38:00.391Z,1.9
2022-08-16T09:39:08.510Z,2.2
2022-08-16T09:40:29.425Z,2.2
2022-08-16T09:41:25.227Z,2.2
2022-08-16T09:42:51.390Z,2.2
2022-08-16T09:43:58.968Z,2.2
2022-08-16T09:45:10.264Z,2.2
2022-08-16T09:45:59.073Z,2.3
2022-08-16T09:47:10.235Z,2.3
2022-08-16T09:48:36.775Z,2.3
2022-08-16T09:49:24.378Z,2.3
2022-08-16T09:50:33.371Z,2.3
2022-08-16T09:51:41.054Z,2.3
2022-08-16T09:52:49.842Z,2.5
2022-08-16T09:53:57.996Z,2.5
2022-08-16T09:55:06.356Z,2.5
2022-08-16T09:56:14.907Z,2.4
2022-08-16T09:57:23.253Z,2.4
2022-08-16T09:58:39.122Z,2.4
2022-08-16T09:59:41.821Z,2.3
2022-08-16T10:00:48.538Z,2.3
2022-08-16T10:01:56.894Z,2.3
2022-08-16T10:03:05.567Z,2.1
2022-08-16T10:04:28.918Z,2.1
2022-08-16T10:05:22.171Z,2.1
2022-08-16T10:06:33.767Z,2.4
2022-08-16T10:07:44.859Z,2.4
2022-08-16T10:09:05.089Z,2.4
2022-08-16T10:09:56.384Z,2.4
2022-08-16T10:11:04.379Z,2.4
2022-08-16T10:12:17.812Z,2.4
2022-08-16T10:13:21.273Z,2.6
2022-08-16T10:14:32.866Z,2.6
2022-08-16T10:15:38.020Z,2.6
2022-08-16T10:16:48.892Z,2.7
2022-08-16T10:17:59.767Z,2.7
2022-08-16T10:19:06.811Z,2.7
2022-08-16T10:20:13.700Z,2.2
2022-08-16T10:21:20.216Z,2.2
2022-08-16T10:22:28.566Z,2.2
2022-08-16T10:23:37.133Z,2.9
2022-08-16T10:24:55.450Z,2.9
2022-08-16T10:27:00.188Z,2.9
2022-08-16T10:27:20.986Z,2.6
2022-08-16T10:28:26.548Z,2.6
2022-08-16T10:29:19.805Z,2.6
2022-08-16T10:30:28.303Z,2.5
2022-08-16T10:31:43.950Z,2.5
2022-08-16T10:32:44.393Z,2.5
2022-08-16T10:33:52.977Z,2.5
2022-08-16T10:35:02.082Z,2.5
2022-08-16T10:36:09.673Z,2.5
2022-08-16T10:37:18.228Z,2.7
2022-08-16T10:38:26.897Z,2.7
2022-08-16T10:39:41.008Z,2.7
2022-08-16T10:40:45.626Z,2.9
2022-08-16T10:41:51.874Z,2.9
2022-08-16T10:43:00.375Z,2.9
2022-08-16T10:44:09.476Z,2.9
2022-08-16T10:45:17.153Z,2.9
2022-08-16T10:46:34.060Z,2.9
2022-08-16T10:47:38.246Z,2.3
2022-08-16T10:48:46.942Z,2.3
2022-08-16T10:49:50.765Z,2.3
2022-08-16T10:50:59.426Z,2.1
2022-08-16T10:52:17.890Z,2.1
2022-08-16T10:53:16.023Z,2.1
2022-08-16T10:54:28.950Z,2.4
2022-08-16T10:55:40.222Z,2.4
2022-08-16T10:56:53.136Z,2.4
2022-08-16T10:57:50.049Z,2.4
2022-08-16T10:59:29.455Z,2.4
2022-08-16T11:00:06.572Z,2.4
2022-08-16T11:01:39.733Z,2.5
2022-08-16T11:03:00.067Z,2.5
2022-08-16T11:03:42.095Z,2.5
2022-08-16T11:06:06.094Z,2.8
2022-08-16T11:08:06.998Z,2.8
2022-08-16T11:09:24.368Z,2.8
2022-08-16T11:11:05.601Z,2.8
2022-08-16T11:11:30.910Z,2.8
2022-08-16T11:12:39.254Z,2.8
2022-08-16T11:14:05.833Z,2.8
2022-08-16T11:15:12.239Z,2.7
2022-08-16T11:16:27.731Z,2.7
2022-08-16T11:17:12.871Z,2.7
2022-08-16T11:18:49.311Z,2.9
2022-08-16T11:19:30.258Z,2.9
2022-08-16T11:20:41.700Z,2.9
2022-08-16T11:22:55.143Z,2.8
2022-08-16T11:24:03.547Z,2.8
2022-08-16T11:25:12.922Z,3
2022-08-16T11:26:24.084Z,3
2022-08-16T11:27:32.647Z,3
2022-08-16T11:29:12.436Z,3.5
2022-08-16T11:29:45.733Z,3.5
2022-08-16T11:30:54.977Z,3.5
2022-08-16T11:32:02.649Z,3
2022-08-16T11:33:10.990Z,3
2022-08-16T11:34:19.738Z,3
2022-08-16T11:35:43.876Z,2.7
2022-08-16T11:36:36.302Z,2.7
2022-08-16T11:38:57.105Z,3.1
2022-08-16T11:40:01.734Z,3.1
2022-08-16T11:41:09.944Z,3.1
2022-08-16T11:42:23.311Z,2.8
2022-08-16T11:43:26.880Z,2.8
2022-08-16T11:44:43.730Z,2.8
2022-08-16T11:45:43.802Z,2.6
2022-08-16T11:46:52.148Z,2.6
2022-08-16T11:48:00.509Z,2.6
2022-08-16T11:49:13.339Z,2.7
2022-08-16T11:50:17.462Z,2.7
2022-08-16T11:51:25.767Z,2.7
2022-08-16T11:52:34.317Z,2.7
2022-08-16T11:53:42.690Z,2.7
2022-08-16T11:54:53.866Z,2.7
2022-08-16T11:55:59.616Z,3
2022-08-16T11:57:09.071Z,3
2022-08-16T11:58:16.323Z,3
2022-08-16T11:59:25.473Z,2.8
2022-08-16T12:00:50.945Z,2.8
2022-08-16T12:01:44.704Z,2.8
2022-08-16T12:02:50.145Z,2.8
2022-08-16T12:03:58.559Z,2.8
2022-08-16T12:05:06.850Z,2.8
2022-08-16T12:06:24.692Z,3.1
2022-08-16T12:07:24.130Z,3.1
2022-08-16T12:08:32.162Z,3.1
2022-08-16T12:09:43.304Z,2.7
2022-08-16T12:10:49.081Z,2.7
2022-08-16T12:11:57.422Z,2.7
2022-08-16T12:13:05.978Z,2.7
2022-08-16T12:14:14.348Z,2.7
2022-08-16T12:15:22.687Z,2.7
2022-08-16T12:16:34.249Z,3.1
2022-08-16T12:17:39.595Z,3.1
2022-08-16T12:19:56.518Z,3.1
2022-08-16T12:21:04.875Z,3.1
2022-08-16T12:22:18.763Z,3.1
2022-08-16T12:23:21.796Z,2.9
2022-08-16T12:24:30.147Z,2.9
2022-08-16T12:25:38.494Z,2.9
2022-08-16T12:26:47.055Z,2.8
2022-08-16T12:27:55.424Z,2.8
2022-08-16T12:29:03.779Z,2.8
2022-08-16T12:30:19.848Z,2.9
2022-08-16T12:31:20.678Z,2.9
2022-08-16T12:32:38.571Z,2.9
2022-08-16T12:33:42.712Z,2.9
2022-08-16T12:34:48.175Z,2.9
2022-08-16T12:35:54.308Z,2.9
2022-08-16T12:37:03.208Z,2.8
2022-08-16T12:38:38.328Z,2.8
2022-08-16T12:39:19.566Z,2.8
2022-08-16T12:40:29.001Z,2.8
2022-08-16T12:41:36.477Z,2.8
2022-08-16T12:42:50.060Z,2.8
2022-08-16T12:43:53.427Z,2.9
2022-08-16T12:45:01.774Z,2.9
2022-08-16T12:46:10.130Z,2.9
2022-08-16T12:47:18.689Z,3
2022-08-16T12:48:33.038Z,3
2022-08-16T12:49:41.836Z,3
2022-08-16T12:50:43.950Z,3
2022-08-16T12:51:59.123Z,3
2022-08-16T12:53:00.660Z,3
2022-08-16T12:54:09.220Z,2.9
2022-08-16T12:55:17.595Z,2.9
2022-08-16T12:56:25.939Z,2.9
2022-08-16T12:57:36.299Z,3.2
2022-08-16T12:58:50.065Z,3.2
2022-08-16T12:59:51.216Z,3.2
2022-08-16T13:00:59.834Z,3.1
2022-08-16T13:02:08.117Z,3.1
2022-08-16T13:03:16.491Z,3.1
2022-08-16T13:04:25.223Z,2.7
2022-08-16T13:06:41.753Z,2.7
2022-08-16T13:07:51.560Z,2.9
2022-08-16T13:08:58.691Z,2.9
2022-08-16T13:10:20.996Z,2.9
2022-08-16T13:11:15.589Z,2.8
2022-08-16T13:12:24.914Z,2.8
2022-08-16T13:13:32.284Z,2.8
2022-08-16T13:14:41.052Z,3
2022-08-16T13:15:51.908Z,3
2022-08-16T13:16:57.558Z,3
2022-08-16T13:18:11.236Z,3
2022-08-16T13:19:14.494Z,3
2022-08-16T13:20:22.848Z,3
2022-08-16T13:21:31.404Z,3.1
2022-08-16T13:23:48.171Z,3.1
2022-08-16T13:24:56.939Z,2.7
2022-08-16T13:26:05.285Z,2.7
2022-08-16T13:27:13.871Z,2.7
2022-08-16T13:28:22.732Z,2.6
2022-08-16T13:29:39.846Z,2.6
2022-08-16T13:30:41.132Z,2.6
2022-08-16T13:31:47.652Z,2.6
2022-08-16T13:32:56.018Z,2.6
2022-08-16T13:34:09.197Z,2.6
2022-08-16T13:35:12.912Z,2.7
2022-08-16T13:36:38.640Z,2.7
2022-08-16T13:37:29.629Z,2.7
2022-08-16T13:38:38.189Z,2.5
2022-08-16T13:39:46.583Z,2.5
2022-08-16T13:40:55.789Z,2.5
2022-08-16T13:42:03.448Z,2.9
2022-08-16T13:43:11.835Z,2.9
2022-08-16T13:44:20.177Z,2.9
2022-08-16T13:45:28.728Z,2.7
2022-08-16T13:46:37.087Z,2.7
2022-08-16T13:47:45.457Z,2.7
2022-08-16T13:48:54.945Z,2.6
2022-08-16T13:50:02.938Z,2.6
2022-08-16T13:51:15.667Z,2.6
2022-08-16T13:52:19.845Z,2.7
2022-08-16T13:53:28.214Z,2.7
2022-08-16T13:54:36.589Z,2.7
2022-08-16T13:55:45.142Z,3.2
2022-08-16T13:56:53.541Z,3.2
2022-08-16T13:58:35.942Z,3.2
2022-08-16T13:59:14.084Z,2.8
2022-08-16T14:00:19.439Z,2.8
2022-08-16T14:01:27.364Z,2.8
2022-08-16T14:02:36.173Z,3.1
2022-08-16T14:03:44.454Z,3.1
2022-08-16T14:05:01.933Z,3.1
2022-08-16T14:06:01.377Z,3
2022-08-16T14:07:09.732Z,3
2022-08-16T14:08:18.101Z,3
2022-08-16T14:09:27.132Z,2.7
2022-08-16T14:10:35.025Z,2.7
2022-08-16T14:11:43.404Z,2.7
2022-08-16T14:12:51.972Z,2.8
2022-08-16T14:14:00.360Z,2.8
2022-08-16T14:15:08.698Z,2.8
2022-08-16T14:16:23.684Z,2.7
2022-08-16T14:17:25.632Z,2.7
2022-08-16T14:18:33.993Z,2.7
2022-08-16T14:19:44.711Z,2.6
2022-08-16T14:20:51.111Z,2.6
2022-08-16T14:22:02.299Z,2.6
2022-08-16T14:23:07.857Z,2.7
2022-08-16T14:24:22.602Z,2.7
2022-08-16T14:25:24.620Z,2.7
2022-08-16T14:26:33.198Z,2.8
2022-08-16T14:27:42.073Z,2.8
2022-08-16T14:28:49.926Z,2.8
2022-08-16T15:02:51.095Z,0
2022-08-16T15:03:59.295Z,0
2022-08-16T15:05:07.653Z,0
2022-08-16T15:06:16.388Z,3.4
2022-08-16T15:07:24.565Z,3.4
2022-08-16T15:08:34.281Z,3.4
2022-08-16T15:09:44.027Z,3.2
2022-08-16T15:10:49.866Z,3.2
2022-08-16T15:11:58.235Z,3.2
2022-08-16T15:13:06.785Z,3.6
2022-08-16T15:14:15.160Z,3.6
2022-08-16T15:15:23.514Z,3.6
2022-08-16T15:16:32.098Z,3
2022-08-16T15:17:41.309Z,3
2022-08-16T15:18:49.543Z,3
2022-08-16T15:19:58.109Z,3.2
2022-08-16T15:21:08.390Z,3.2
2022-08-16T15:22:14.835Z,3.2
2022-08-16T15:23:23.396Z,3.2
2022-08-16T15:24:31.768Z,3.2
2022-08-16T15:25:41.164Z,3.2
2022-08-16T15:26:48.691Z,3
2022-08-16T15:27:57.127Z,3
2022-08-16T15:29:05.404Z,3
2022-08-16T15:30:44.745Z,3.1
2022-08-16T15:31:22.343Z,3.1
2022-08-16T15:32:30.701Z,3.1
2022-08-16T15:33:42.656Z,3.1
2022-08-16T15:34:47.621Z,3.1
2022-08-16T15:35:58.021Z,3.1
2022-08-16T15:37:04.544Z,3
2022-08-16T15:38:31.796Z,3
2022-08-16T15:39:26.942Z,3
2022-08-16T15:40:32.494Z,3.1
2022-08-16T15:41:38.208Z,3.1
2022-08-16T15:42:47.242Z,3.1
2022-08-16T15:44:03.567Z,2.9
2022-08-16T15:45:03.468Z,2.9
2022-08-16T15:46:11.832Z,2.9
2022-08-16T15:47:20.376Z,2.8
2022-08-16T15:48:29.277Z,2.8
2022-08-16T15:49:45.657Z,2.8
2022-08-16T15:50:45.710Z,2.9
2022-08-16T15:51:54.243Z,2.9
2022-08-16T15:53:02.397Z,2.9
2022-08-16T15:54:16.620Z,3.5
2022-08-16T15:55:24.135Z,3.5
2022-08-16T15:56:27.851Z,3.5
2022-08-16T15:57:37.054Z,2.9
2022-08-16T15:58:44.559Z,2.9
2022-08-16T15:59:55.725Z,2.9
2022-08-16T16:01:01.510Z,3
2022-08-16T16:02:09.824Z,3
2022-08-16T16:03:18.178Z,3
2022-08-16T16:04:26.743Z,2.8
2022-08-16T16:05:35.111Z,2.8
2022-08-16T16:06:43.456Z,2.8
2022-08-16T16:07:55.384Z,3
2022-08-16T16:09:00.373Z,3
2022-08-16T16:10:13.089Z,3
2022-08-16T16:11:17.326Z,2.9
2022-08-16T16:12:54.916Z,2.9
2022-08-16T16:13:34.051Z,2.9
2022-08-16T16:14:42.611Z,3.1
2022-08-16T16:15:50.979Z,3.1
2022-08-16T16:16:59.329Z,3.1
2022-08-16T16:18:09.773Z,4.9
2022-08-16T16:19:16.303Z,4.9
2022-08-16T16:20:27.080Z,4.9
2022-08-16T16:21:33.257Z,3
2022-08-16T16:22:41.604Z,3
2022-08-16T16:23:53.052Z,3
2022-08-16T16:24:58.573Z,2.7
2022-08-16T16:26:06.936Z,2.7
2022-08-16T16:27:15.282Z,2.7
2022-08-16T16:28:46.468Z,3
2022-08-16T16:29:37.339Z,3
2022-08-16T16:30:44.765Z,3